sensor_id;sensor_type;location;lat;lon;timestamp;temperature;humidity
34147;DHT22;20423;49.448;9.056;2023-04-06T00:01:27;-0.50;99.90
34147;DHT22;20423;49.448;9.056;2023-04-06T00:03:53;-0.30;99.90
34147;DHT22;20423;49.448;9.056;2023-04-06T00:06:19;-0.30;99.90
34147;DHT22;20423;49.448;9.056;2023-04-06T00:08:45;-0.30;99.90
34147;DHT22;20423;49.448;9.056;2023-04-06T00:11:11;-0.20;99.90
34147;DHT22;20423;49.448;9.056;2023-04-06T00:13:37;0.00;99.90
34147;DHT22;20423;49.448;9.056;2023-04-06T00:16:03;0.00;99.90
34147;DHT22;20423;49.448;9.056;2023-04-06T00:18:30;-0.10;99.90
34147;DHT22;20423;49.448;9.056;2023-04-06T00:20:56;-0.30;99.90
34147;DHT22;20423;49.448;9.056;2023-04-06T00:23:22;-0.50;99.90
34147;DHT22;20423;49.448;9.056;2023-04-06T00:25:48;-0.70;99.90
34147;DHT22;20423;49.448;9.056;2023-04-06T00:28:14;-0.90;99.90
34147;DHT22;20423;49.448;9.056;2023-04-06T00:30:40;-1.20;99.90
34147;DHT22;20423;49.448;9.056;2023-04-06T00:33:06;-1.40;99.90
34147;DHT22;20423;49.448;9.056;2023-04-06T00:35:32;-1.60;99.90
34147;DHT22;20423;49.448;9.056;2023-04-06T00:37:58;-1.70;99.90
34147;DHT22;20423;49.448;9.056;2023-04-06T00:40:24;-1.80;99.90
34147;DHT22;20423;49.448;9.056;2023-04-06T00:42:50;-1.90;99.90
34147;DHT22;20423;49.448;9.056;2023-04-06T00:45:16;-1.90;99.90
34147;DHT22;20423;49.448;9.056;2023-04-06T00:47:42;-1.90;99.90
34147;DHT22;20423;49.448;9.056;2023-04-06T00:50:08;-2.00;99.90
34147;DHT22;20423;49.448;9.056;2023-04-06T00:52:46;-1.90;99.90
34147;DHT22;20423;49.448;9.056;2023-04-06T00:55:12;-1.90;99.90
34147;DHT22;20423;49.448;9.056;2023-04-06T00:57:41;-2.00;99.90
34147;DHT22;20423;49.448;9.056;2023-04-06T01:00:07;-2.10;99.90
34147;DHT22;20423;49.448;9.056;2023-04-06T01:02:34;-2.10;99.90
34147;DHT22;20423;49.448;9.056;2023-04-06T01:05:00;-2.10;99.90
34147;DHT22;20423;49.448;9.056;2023-04-06T01:07:37;-2.20;99.90
34147;DHT22;20423;49.448;9.056;2023-04-06T01:10:08;-2.20;99.90
34147;DHT22;20423;49.448;9.056;2023-04-06T01:12:36;-2.20;99.90
34147;DHT22;20423;49.448;9.056;2023-04-06T01:15:08;-2.10;99.90
34147;DHT22;20423;49.448;9.056;2023-04-06T01:17:37;-2.10;99.90
34147;DHT22;20423;49.448;9.056;2023-04-06T01:20:10;-2.00;99.90
34147;DHT22;20423;49.448;9.056;2023-04-06T01:22:37;-2.00;99.90
34147;DHT22;20423;49.448;9.056;2023-04-06T01:25:03;-1.90;99.90
34147;DHT22;20423;49.448;9.056;2023-04-06T01:27:39;-1.80;99.90
34147;DHT22;20423;49.448;9.056;2023-04-06T01:30:11;-1.80;99.90
34147;DHT22;20423;49.448;9.056;2023-04-06T01:32:48;-1.90;99.90
34147;DHT22;20423;49.448;9.056;2023-04-06T01:35:19;-2.00;99.90
34147;DHT22;20423;49.448;9.056;2023-04-06T01:37:55;-2.00;99.90
34147;DHT22;20423;49.448;9.056;2023-04-06T01:40:28;-2.10;99.90
34147;DHT22;20423;49.448;9.056;2023-04-06T01:42:54;-2.10;99.90
34147;DHT22;20423;49.448;9.056;2023-04-06T01:45:28;-2.20;99.90
34147;DHT22;20423;49.448;9.056;2023-04-06T01:48:00;-2.20;99.90
34147;DHT22;20423;49.448;9.056;2023-04-06T01:50:27;-2.20;99.90
34147;DHT22;20423;49.448;9.056;2023-04-06T01:52:53;-2.20;99.90
34147;DHT22;20423;49.448;9.056;2023-04-06T01:55:21;-2.20;99.90
34147;DHT22;20423;49.448;9.056;2023-04-06T01:58:16;-2.30;99.90
34147;DHT22;20423;49.448;9.056;2023-04-06T02:00:42;-2.20;99.90
34147;DHT22;20423;49.448;9.056;2023-04-06T02:03:08;-2.10;99.90
34147;DHT22;20423;49.448;9.056;2023-04-06T02:05:34;-2.20;99.90
34147;DHT22;20423;49.448;9.056;2023-04-06T02:08:13;-2.30;99.90
34147;DHT22;20423;49.448;9.056;2023-04-06T02:10:39;-2.30;99.90
34147;DHT22;20423;49.448;9.056;2023-04-06T02:13:15;-2.40;99.90
34147;DHT22;20423;49.448;9.056;2023-04-06T02:15:46;-2.30;99.90
34147;DHT22;20423;49.448;9.056;2023-04-06T02:18:11;-2.30;99.90
34147;DHT22;20423;49.448;9.056;2023-04-06T02:20:37;-2.30;99.90
34147;DHT22;20423;49.448;9.056;2023-04-06T02:23:03;-2.40;99.90
34147;DHT22;20423;49.448;9.056;2023-04-06T02:25:29;-2.50;99.90
34147;DHT22;20423;49.448;9.056;2023-04-06T02:28:00;-2.60;99.90
34147;DHT22;20423;49.448;9.056;2023-04-06T02:30:28;-2.60;99.90
34147;DHT22;20423;49.448;9.056;2023-04-06T02:32:55;-2.60;99.90
34147;DHT22;20423;49.448;9.056;2023-04-06T02:35:21;-2.40;99.90
34147;DHT22;20423;49.448;9.056;2023-04-06T02:37:52;-2.50;99.90
34147;DHT22;20423;49.448;9.056;2023-04-06T02:40:19;-2.50;99.90
34147;DHT22;20423;49.448;9.056;2023-04-06T02:42:45;-2.50;99.90
34147;DHT22;20423;49.448;9.056;2023-04-06T02:45:15;-2.60;99.90
34147;DHT22;20423;49.448;9.056;2023-04-06T02:47:45;-2.60;99.90
34147;DHT22;20423;49.448;9.056;2023-04-06T02:50:14;-2.60;99.90
34147;DHT22;20423;49.448;9.056;2023-04-06T02:52:47;-2.60;99.90
34147;DHT22;20423;49.448;9.056;2023-04-06T02:55:13;-2.60;99.90
34147;DHT22;20423;49.448;9.056;2023-04-06T02:57:38;-2.60;99.90
34147;DHT22;20423;49.448;9.056;2023-04-06T03:00:05;-2.60;99.90
34147;DHT22;20423;49.448;9.056;2023-04-06T03:02:38;-2.70;99.90
34147;DHT22;20423;49.448;9.056;2023-04-06T03:05:08;-2.70;99.90
34147;DHT22;20423;49.448;9.056;2023-04-06T03:07:38;-2.70;99.90
34147;DHT22;20423;49.448;9.056;2023-04-06T03:10:05;-2.70;99.90
34147;DHT22;20423;49.448;9.056;2023-04-06T03:12:33;-2.80;99.90
34147;DHT22;20423;49.448;9.056;2023-04-06T03:15:25;-2.80;99.90
34147;DHT22;20423;49.448;9.056;2023-04-06T03:17:58;-2.90;99.90
34147;DHT22;20423;49.448;9.056;2023-04-06T03:20:32;-2.90;99.90
34147;DHT22;20423;49.448;9.056;2023-04-06T03:22:58;-2.90;99.90
34147;DHT22;20423;49.448;9.056;2023-04-06T03:25:28;-2.90;99.90
34147;DHT22;20423;49.448;9.056;2023-04-06T03:27:59;-2.90;99.90
34147;DHT22;20423;49.448;9.056;2023-04-06T03:30:25;-2.90;99.90
34147;DHT22;20423;49.448;9.056;2023-04-06T03:32:52;-2.90;99.90
34147;DHT22;20423;49.448;9.056;2023-04-06T03:35:21;-3.00;99.90
34147;DHT22;20423;49.448;9.056;2023-04-06T03:37:46;-3.00;99.90
34147;DHT22;20423;49.448;9.056;2023-04-06T03:40:13;-3.10;99.90
34147;DHT22;20423;49.448;9.056;2023-04-06T03:42:39;-3.00;99.90
34147;DHT22;20423;49.448;9.056;2023-04-06T03:45:11;-3.00;99.90
34147;DHT22;20423;49.448;9.056;2023-04-06T03:47:44;-3.00;99.90
34147;DHT22;20423;49.448;9.056;2023-04-06T03:50:10;-3.00;99.90
34147;DHT22;20423;49.448;9.056;2023-04-06T03:52:36;-3.00;99.90
34147;DHT22;20423;49.448;9.056;2023-04-06T03:55:02;-3.00;99.90
34147;DHT22;20423;49.448;9.056;2023-04-06T03:57:28;-2.90;99.90
34147;DHT22;20423;49.448;9.056;2023-04-06T03:59:53;-3.00;99.90
34147;DHT22;20423;49.448;9.056;2023-04-06T04:02:19;-3.00;99.90
34147;DHT22;20423;49.448;9.056;2023-04-06T04:07:58;-3.00;99.90
34147;DHT22;20423;49.448;9.056;2023-04-06T04:10:26;-3.00;99.90
34147;DHT22;20423;49.448;9.056;2023-04-06T04:12:51;-3.00;99.90
34147;DHT22;20423;49.448;9.056;2023-04-06T04:15:17;-3.00;99.90
34147;DHT22;20423;49.448;9.056;2023-04-06T04:17:43;-3.10;99.90
34147;DHT22;20423;49.448;9.056;2023-04-06T04:20:12;-3.10;99.90
34147;DHT22;20423;49.448;9.056;2023-04-06T04:22:38;-3.00;99.90
34147;DHT22;20423;49.448;9.056;2023-04-06T04:25:05;-3.00;99.90
34147;DHT22;20423;49.448;9.056;2023-04-06T04:27:33;-2.90;99.90
34147;DHT22;20423;49.448;9.056;2023-04-06T04:29:59;-2.70;99.90
34147;DHT22;20423;49.448;9.056;2023-04-06T04:32:25;-2.70;99.90
34147;DHT22;20423;49.448;9.056;2023-04-06T04:34:54;-2.80;99.90
34147;DHT22;20423;49.448;9.056;2023-04-06T04:37:31;-2.70;99.90
34147;DHT22;20423;49.448;9.056;2023-04-06T04:39:57;-2.70;99.90
34147;DHT22;20423;49.448;9.056;2023-04-06T04:42:23;-2.80;99.90
34147;DHT22;20423;49.448;9.056;2023-04-06T04:44:51;-3.00;99.90
34147;DHT22;20423;49.448;9.056;2023-04-06T04:47:29;-3.10;99.90
34147;DHT22;20423;49.448;9.056;2023-04-06T04:49:56;-3.10;99.90
34147;DHT22;20423;49.448;9.056;2023-04-06T04:52:23;-3.00;99.90
34147;DHT22;20423;49.448;9.056;2023-04-06T04:55:09;-3.00;99.90
34147;DHT22;20423;49.448;9.056;2023-04-06T04:57:35;-3.00;99.90
34147;DHT22;20423;49.448;9.056;2023-04-06T05:00:03;-3.00;99.90
34147;DHT22;20423;49.448;9.056;2023-04-06T05:02:30;-2.90;99.90
34147;DHT22;20423;49.448;9.056;2023-04-06T05:05:10;-2.90;99.90
34147;DHT22;20423;49.448;9.056;2023-04-06T05:07:37;-2.90;99.90
34147;DHT22;20423;49.448;9.056;2023-04-06T05:13:08;-2.80;99.90
34147;DHT22;20423;49.448;9.056;2023-04-06T05:15:34;-2.60;99.90
34147;DHT22;20423;49.448;9.056;2023-04-06T05:18:17;-2.50;99.90
34147;DHT22;20423;49.448;9.056;2023-04-06T05:20:44;-2.50;99.90
34147;DHT22;20423;49.448;9.056;2023-04-06T05:23:10;-2.50;99.90
34147;DHT22;20423;49.448;9.056;2023-04-06T05:25:36;-2.50;99.90
34147;DHT22;20423;49.448;9.056;2023-04-06T05:28:12;-2.50;99.90
34147;DHT22;20423;49.448;9.056;2023-04-06T05:30:40;-2.50;99.90
34147;DHT22;20423;49.448;9.056;2023-04-06T05:33:09;-2.40;99.90
34147;DHT22;20423;49.448;9.056;2023-04-06T05:35:54;-2.30;99.90
34147;DHT22;20423;49.448;9.056;2023-04-06T05:38:19;-2.30;99.90
34147;DHT22;20423;49.448;9.056;2023-04-06T05:44:09;-2.00;99.90
34147;DHT22;20423;49.448;9.056;2023-04-06T05:46:35;-1.90;99.90
34147;DHT22;20423;49.448;9.056;2023-04-06T05:49:01;-1.80;99.90
34147;DHT22;20423;49.448;9.056;2023-04-06T05:51:30;-1.60;99.90
34147;DHT22;20423;49.448;9.056;2023-04-06T05:53:56;-1.40;99.90
34147;DHT22;20423;49.448;9.056;2023-04-06T05:56:24;-1.30;99.90
34147;DHT22;20423;49.448;9.056;2023-04-06T05:58:50;-1.20;99.90
34147;DHT22;20423;49.448;9.056;2023-04-06T06:01:22;-1.10;99.90
34147;DHT22;20423;49.448;9.056;2023-04-06T06:03:48;-1.00;99.90
34147;DHT22;20423;49.448;9.056;2023-04-06T06:06:15;-0.80;99.90
34147;DHT22;20423;49.448;9.056;2023-04-06T06:09:05;-0.70;99.90
34147;DHT22;20423;49.448;9.056;2023-04-06T06:11:36;-0.50;99.90
34147;DHT22;20423;49.448;9.056;2023-04-06T06:14:03;-0.40;99.90
34147;DHT22;20423;49.448;9.056;2023-04-06T06:16:33;-0.30;99.90
34147;DHT22;20423;49.448;9.056;2023-04-06T06:18:59;0.00;99.90
34147;DHT22;20423;49.448;9.056;2023-04-06T06:21:25;0.10;99.90
34147;DHT22;20423;49.448;9.056;2023-04-06T06:23:52;0.30;99.90
34147;DHT22;20423;49.448;9.056;2023-04-06T06:26:20;0.40;99.90
34147;DHT22;20423;49.448;9.056;2023-04-06T06:28:46;0.60;99.90
34147;DHT22;20423;49.448;9.056;2023-04-06T06:31:13;0.80;99.90
34147;DHT22;20423;49.448;9.056;2023-04-06T06:33:39;1.00;99.90
34147;DHT22;20423;49.448;9.056;2023-04-06T06:36:05;1.30;99.90
34147;DHT22;20423;49.448;9.056;2023-04-06T06:38:31;1.40;99.90
34147;DHT22;20423;49.448;9.056;2023-04-06T06:40:57;1.60;99.90
34147;DHT22;20423;49.448;9.056;2023-04-06T06:43:26;1.70;99.90
34147;DHT22;20423;49.448;9.056;2023-04-06T06:45:57;1.90;99.90
34147;DHT22;20423;49.448;9.056;2023-04-06T06:48:24;2.00;99.90
34147;DHT22;20423;49.448;9.056;2023-04-06T06:50:50;2.10;99.90
34147;DHT22;20423;49.448;9.056;2023-04-06T06:53:16;2.20;99.90
34147;DHT22;20423;49.448;9.056;2023-04-06T06:56:04;2.30;99.90
34147;DHT22;20423;49.448;9.056;2023-04-06T06:58:30;2.50;99.90
34147;DHT22;20423;49.448;9.056;2023-04-06T07:00:59;2.60;99.90
34147;DHT22;20423;49.448;9.056;2023-04-06T07:03:26;2.70;99.90
34147;DHT22;20423;49.448;9.056;2023-04-06T07:05:53;2.80;99.90
34147;DHT22;20423;49.448;9.056;2023-04-06T07:08:21;3.00;99.90
34147;DHT22;20423;49.448;9.056;2023-04-06T07:10:47;3.10;99.90
34147;DHT22;20423;49.448;9.056;2023-04-06T07:13:14;3.20;99.90
34147;DHT22;20423;49.448;9.056;2023-04-06T07:15:48;3.30;99.90
34147;DHT22;20423;49.448;9.056;2023-04-06T07:18:14;3.40;99.90
34147;DHT22;20423;49.448;9.056;2023-04-06T07:20:40;3.50;99.90
34147;DHT22;20423;49.448;9.056;2023-04-06T07:23:06;3.60;99.90
34147;DHT22;20423;49.448;9.056;2023-04-06T07:25:32;3.80;99.90
34147;DHT22;20423;49.448;9.056;2023-04-06T07:27:58;3.90;99.90
34147;DHT22;20423;49.448;9.056;2023-04-06T07:30:24;4.00;99.90
34147;DHT22;20423;49.448;9.056;2023-04-06T07:32:55;4.20;99.90
34147;DHT22;20423;49.448;9.056;2023-04-06T07:35:26;4.20;99.90
34147;DHT22;20423;49.448;9.056;2023-04-06T07:37:53;4.20;99.90
34147;DHT22;20423;49.448;9.056;2023-04-06T07:40:19;4.30;99.90
34147;DHT22;20423;49.448;9.056;2023-04-06T07:42:46;4.40;99.90
34147;DHT22;20423;49.448;9.056;2023-04-06T07:45:12;4.50;99.90
34147;DHT22;20423;49.448;9.056;2023-04-06T07:47:38;4.50;99.90
34147;DHT22;20423;49.448;9.056;2023-04-06T07:50:04;4.60;99.90
34147;DHT22;20423;49.448;9.056;2023-04-06T07:52:31;4.70;99.90
34147;DHT22;20423;49.448;9.056;2023-04-06T07:54:59;4.70;99.90
34147;DHT22;20423;49.448;9.056;2023-04-06T07:57:24;4.80;99.90
34147;DHT22;20423;49.448;9.056;2023-04-06T07:59:51;4.80;99.90
34147;DHT22;20423;49.448;9.056;2023-04-06T08:02:17;4.70;99.90
34147;DHT22;20423;49.448;9.056;2023-04-06T08:04:43;4.80;99.90
34147;DHT22;20423;49.448;9.056;2023-04-06T08:07:09;4.80;99.90
34147;DHT22;20423;49.448;9.056;2023-04-06T08:09:35;4.90;99.90
34147;DHT22;20423;49.448;9.056;2023-04-06T08:12:01;5.00;99.90
34147;DHT22;20423;49.448;9.056;2023-04-06T08:14:27;5.00;99.90
34147;DHT22;20423;49.448;9.056;2023-04-06T08:16:52;5.10;99.90
34147;DHT22;20423;49.448;9.056;2023-04-06T08:19:18;5.20;99.90
34147;DHT22;20423;49.448;9.056;2023-04-06T08:21:47;5.30;99.90
34147;DHT22;20423;49.448;9.056;2023-04-06T08:24:14;5.40;99.90
34147;DHT22;20423;49.448;9.056;2023-04-06T08:26:40;5.50;99.90
34147;DHT22;20423;49.448;9.056;2023-04-06T08:29:06;5.70;99.90
34147;DHT22;20423;49.448;9.056;2023-04-06T08:31:35;5.80;99.90
34147;DHT22;20423;49.448;9.056;2023-04-06T08:34:05;5.90;99.90
34147;DHT22;20423;49.448;9.056;2023-04-06T08:36:31;6.00;99.90
34147;DHT22;20423;49.448;9.056;2023-04-06T08:38:57;6.10;99.90
34147;DHT22;20423;49.448;9.056;2023-04-06T08:41:23;6.20;99.90
34147;DHT22;20423;49.448;9.056;2023-04-06T08:43:52;6.30;99.90
34147;DHT22;20423;49.448;9.056;2023-04-06T08:46:21;6.30;99.90
34147;DHT22;20423;49.448;9.056;2023-04-06T08:48:47;6.50;99.90
34147;DHT22;20423;49.448;9.056;2023-04-06T08:51:17;6.70;99.90
34147;DHT22;20423;49.448;9.056;2023-04-06T08:53:44;6.80;99.90
34147;DHT22;20423;49.448;9.056;2023-04-06T08:56:10;7.60;99.90
34147;DHT22;20423;49.448;9.056;2023-04-06T08:58:39;8.90;99.90
34147;DHT22;20423;49.448;9.056;2023-04-06T09:01:07;10.30;96.90
34147;DHT22;20423;49.448;9.056;2023-04-06T09:03:37;10.90;91.00
34147;DHT22;20423;49.448;9.056;2023-04-06T09:06:04;11.70;86.40
34147;DHT22;20423;49.448;9.056;2023-04-06T09:08:30;11.60;81.70
34147;DHT22;20423;49.448;9.056;2023-04-06T09:10:56;12.30;79.30
34147;DHT22;20423;49.448;9.056;2023-04-06T09:13:21;13.90;74.80
34147;DHT22;20423;49.448;9.056;2023-04-06T09:16:04;13.60;68.10
34147;DHT22;20423;49.448;9.056;2023-04-06T09:18:32;12.80;67.00
34147;DHT22;20423;49.448;9.056;2023-04-06T09:21:03;12.60;68.60
34147;DHT22;20423;49.448;9.056;2023-04-06T09:23:30;12.50;68.60
34147;DHT22;20423;49.448;9.056;2023-04-06T09:26:16;12.30;67.60
34147;DHT22;20423;49.448;9.056;2023-04-06T09:28:49;12.10;73.70
34147;DHT22;20423;49.448;9.056;2023-04-06T09:31:21;12.60;68.70
34147;DHT22;20423;49.448;9.056;2023-04-06T09:33:47;12.90;66.20
34147;DHT22;20423;49.448;9.056;2023-04-06T09:36:13;12.80;63.80
34147;DHT22;20423;49.448;9.056;2023-04-06T09:38:59;12.40;64.80
34147;DHT22;20423;49.448;9.056;2023-04-06T09:44:09;11.30;68.50
34147;DHT22;20423;49.448;9.056;2023-04-06T09:46:40;11.20;66.80
34147;DHT22;20423;49.448;9.056;2023-04-06T09:49:07;11.20;66.60
34147;DHT22;20423;49.448;9.056;2023-04-06T09:51:39;11.40;68.40
34147;DHT22;20423;49.448;9.056;2023-04-06T09:54:07;11.40;64.90
34147;DHT22;20423;49.448;9.056;2023-04-06T09:56:45;11.70;66.90
34147;DHT22;20423;49.448;9.056;2023-04-06T09:59:41;11.80;65.30
34147;DHT22;20423;49.448;9.056;2023-04-06T10:05:09;12.50;64.70
34147;DHT22;20423;49.448;9.056;2023-04-06T10:07:39;13.00;63.30
34147;DHT22;20423;49.448;9.056;2023-04-06T10:10:06;13.20;62.80
34147;DHT22;20423;49.448;9.056;2023-04-06T10:12:32;13.60;62.20
34147;DHT22;20423;49.448;9.056;2023-04-06T10:14:58;14.00;60.50
34147;DHT22;20423;49.448;9.056;2023-04-06T10:21:14;13.30;63.50
34147;DHT22;20423;49.448;9.056;2023-04-06T10:24:01;14.50;61.10
34147;DHT22;20423;49.448;9.056;2023-04-06T10:26:27;15.00;60.30
34147;DHT22;20423;49.448;9.056;2023-04-06T10:32:38;14.60;59.60
34147;DHT22;20423;49.448;9.056;2023-04-06T10:35:08;15.00;59.60
34147;DHT22;20423;49.448;9.056;2023-04-06T10:38:01;15.10;58.80
34147;DHT22;20423;49.448;9.056;2023-04-06T10:40:28;15.00;57.30
34147;DHT22;20423;49.448;9.056;2023-04-06T10:42:55;14.80;57.60
34147;DHT22;20423;49.448;9.056;2023-04-06T10:45:22;14.70;57.40
34147;DHT22;20423;49.448;9.056;2023-04-06T10:47:48;14.40;59.90
34147;DHT22;20423;49.448;9.056;2023-04-06T10:50:15;14.20;59.80
34147;DHT22;20423;49.448;9.056;2023-04-06T10:52:43;14.20;60.60
34147;DHT22;20423;49.448;9.056;2023-04-06T10:55:09;14.30;59.40
34147;DHT22;20423;49.448;9.056;2023-04-06T10:57:37;13.70;59.70
34147;DHT22;20423;49.448;9.056;2023-04-06T11:00:08;13.30;59.90
34147;DHT22;20423;49.448;9.056;2023-04-06T11:02:35;13.30;61.70
34147;DHT22;20423;49.448;9.056;2023-04-06T11:05:03;13.10;59.80
34147;DHT22;20423;49.448;9.056;2023-04-06T11:07:29;13.40;62.20
34147;DHT22;20423;49.448;9.056;2023-04-06T11:09:56;13.70;61.10
34147;DHT22;20423;49.448;9.056;2023-04-06T11:12:26;13.50;61.10
34147;DHT22;20423;49.448;9.056;2023-04-06T11:15:01;13.50;60.70
34147;DHT22;20423;49.448;9.056;2023-04-06T11:17:34;13.70;60.70
34147;DHT22;20423;49.448;9.056;2023-04-06T11:20:01;13.00;58.10
34147;DHT22;20423;49.448;9.056;2023-04-06T11:22:28;13.30;59.30
34147;DHT22;20423;49.448;9.056;2023-04-06T11:25:05;14.10;59.60
34147;DHT22;20423;49.448;9.056;2023-04-06T11:27:31;14.60;59.00
34147;DHT22;20423;49.448;9.056;2023-04-06T11:29:59;14.90;56.30
34147;DHT22;20423;49.448;9.056;2023-04-06T11:32:25;15.20;56.30
34147;DHT22;20423;49.448;9.056;2023-04-06T11:34:51;15.10;57.00
34147;DHT22;20423;49.448;9.056;2023-04-06T11:37:17;15.50;56.70
34147;DHT22;20423;49.448;9.056;2023-04-06T11:39:51;15.50;56.50
34147;DHT22;20423;49.448;9.056;2023-04-06T11:42:29;15.20;57.20
34147;DHT22;20423;49.448;9.056;2023-04-06T11:44:57;15.50;57.60
34147;DHT22;20423;49.448;9.056;2023-04-06T11:47:36;14.60;57.20
34147;DHT22;20423;49.448;9.056;2023-04-06T11:52:38;14.70;58.80
34147;DHT22;20423;49.448;9.056;2023-04-06T11:55:36;14.30;57.10
34147;DHT22;20423;49.448;9.056;2023-04-06T11:58:02;13.50;57.80
34147;DHT22;20423;49.448;9.056;2023-04-06T12:00:28;14.10;59.50
34147;DHT22;20423;49.448;9.056;2023-04-06T12:02:59;14.70;58.20
34147;DHT22;20423;49.448;9.056;2023-04-06T12:05:25;14.60;56.20
34147;DHT22;20423;49.448;9.056;2023-04-06T12:07:51;13.90;57.10
34147;DHT22;20423;49.448;9.056;2023-04-06T12:10:17;13.80;57.00
34147;DHT22;20423;49.448;9.056;2023-04-06T12:12:43;14.30;58.80
34147;DHT22;20423;49.448;9.056;2023-04-06T12:15:09;14.50;58.40
34147;DHT22;20423;49.448;9.056;2023-04-06T12:17:35;14.50;58.10
34147;DHT22;20423;49.448;9.056;2023-04-06T12:20:01;14.70;58.10
34147;DHT22;20423;49.448;9.056;2023-04-06T12:22:28;14.70;58.40
34147;DHT22;20423;49.448;9.056;2023-04-06T12:24:55;15.00;55.40
34147;DHT22;20423;49.448;9.056;2023-04-06T12:27:21;15.40;56.60
34147;DHT22;20423;49.448;9.056;2023-04-06T12:29:47;15.30;56.00
34147;DHT22;20423;49.448;9.056;2023-04-06T12:32:13;14.80;56.30
34147;DHT22;20423;49.448;9.056;2023-04-06T12:34:38;14.70;55.90
34147;DHT22;20423;49.448;9.056;2023-04-06T12:37:04;14.70;58.00
34147;DHT22;20423;49.448;9.056;2023-04-06T12:39:30;14.10;56.50
34147;DHT22;20423;49.448;9.056;2023-04-06T12:41:56;14.00;57.80
34147;DHT22;20423;49.448;9.056;2023-04-06T12:44:22;14.00;58.50
34147;DHT22;20423;49.448;9.056;2023-04-06T12:46:48;13.90;59.40
34147;DHT22;20423;49.448;9.056;2023-04-06T12:49:15;14.00;59.30
34147;DHT22;20423;49.448;9.056;2023-04-06T12:51:44;13.90;56.40
34147;DHT22;20423;49.448;9.056;2023-04-06T12:54:09;14.10;57.50
34147;DHT22;20423;49.448;9.056;2023-04-06T12:56:37;14.10;57.80
34147;DHT22;20423;49.448;9.056;2023-04-06T12:59:18;14.10;58.60
34147;DHT22;20423;49.448;9.056;2023-04-06T13:01:44;13.80;57.10
34147;DHT22;20423;49.448;9.056;2023-04-06T13:04:10;13.70;56.20
34147;DHT22;20423;49.448;9.056;2023-04-06T13:06:35;13.90;57.00
34147;DHT22;20423;49.448;9.056;2023-04-06T13:09:01;13.50;58.50
34147;DHT22;20423;49.448;9.056;2023-04-06T13:11:27;13.20;57.60
34147;DHT22;20423;49.448;9.056;2023-04-06T13:13:54;13.10;57.40
34147;DHT22;20423;49.448;9.056;2023-04-06T13:16:19;13.40;59.40
34147;DHT22;20423;49.448;9.056;2023-04-06T13:18:46;14.00;58.10
34147;DHT22;20423;49.448;9.056;2023-04-06T13:21:14;13.60;57.50
34147;DHT22;20423;49.448;9.056;2023-04-06T13:23:41;13.90;57.70
34147;DHT22;20423;49.448;9.056;2023-04-06T13:29:55;13.90;57.80
34147;DHT22;20423;49.448;9.056;2023-04-06T13:32:21;13.50;57.60
34147;DHT22;20423;49.448;9.056;2023-04-06T13:34:47;13.00;59.10
34147;DHT22;20423;49.448;9.056;2023-04-06T13:37:23;12.60;58.00
34147;DHT22;20423;49.448;9.056;2023-04-06T13:39:49;12.50;59.90
34147;DHT22;20423;49.448;9.056;2023-04-06T13:42:15;11.90;58.50
34147;DHT22;20423;49.448;9.056;2023-04-06T13:44:40;11.60;60.00
34147;DHT22;20423;49.448;9.056;2023-04-06T13:47:06;11.70;61.50
34147;DHT22;20423;49.448;9.056;2023-04-06T13:49:32;11.70;60.50
34147;DHT22;20423;49.448;9.056;2023-04-06T13:51:58;12.00;59.50
34147;DHT22;20423;49.448;9.056;2023-04-06T13:54:24;12.40;59.70
34147;DHT22;20423;49.448;9.056;2023-04-06T13:56:51;12.60;58.90
34147;DHT22;20423;49.448;9.056;2023-04-06T13:59:17;12.90;59.70
34147;DHT22;20423;49.448;9.056;2023-04-06T14:01:43;13.00;56.40
34147;DHT22;20423;49.448;9.056;2023-04-06T14:04:08;13.30;56.90
34147;DHT22;20423;49.448;9.056;2023-04-06T14:06:34;13.30;56.70
34147;DHT22;20423;49.448;9.056;2023-04-06T14:09:03;12.90;56.20
34147;DHT22;20423;49.448;9.056;2023-04-06T14:11:29;12.80;56.20
34147;DHT22;20423;49.448;9.056;2023-04-06T14:13:55;13.00;56.90
34147;DHT22;20423;49.448;9.056;2023-04-06T14:16:23;12.80;57.30
34147;DHT22;20423;49.448;9.056;2023-04-06T14:18:49;12.80;57.50
34147;DHT22;20423;49.448;9.056;2023-04-06T14:21:15;12.70;55.60
34147;DHT22;20423;49.448;9.056;2023-04-06T14:23:40;12.80;56.30
34147;DHT22;20423;49.448;9.056;2023-04-06T14:26:07;12.90;55.90
34147;DHT22;20423;49.448;9.056;2023-04-06T14:28:34;13.10;55.60
34147;DHT22;20423;49.448;9.056;2023-04-06T14:31:09;13.20;56.70
34147;DHT22;20423;49.448;9.056;2023-04-06T14:33:35;13.30;58.20
34147;DHT22;20423;49.448;9.056;2023-04-06T14:36:04;13.40;57.20
34147;DHT22;20423;49.448;9.056;2023-04-06T14:38:31;13.20;55.50
34147;DHT22;20423;49.448;9.056;2023-04-06T14:40:57;13.10;56.30
34147;DHT22;20423;49.448;9.056;2023-04-06T14:43:51;12.80;57.60
34147;DHT22;20423;49.448;9.056;2023-04-06T14:46:18;12.50;57.60
34147;DHT22;20423;49.448;9.056;2023-04-06T14:48:44;12.40;58.90
34147;DHT22;20423;49.448;9.056;2023-04-06T14:51:11;12.40;59.60
34147;DHT22;20423;49.448;9.056;2023-04-06T14:53:37;12.60;59.90
34147;DHT22;20423;49.448;9.056;2023-04-06T14:56:23;12.30;57.50
34147;DHT22;20423;49.448;9.056;2023-04-06T14:58:50;12.40;57.60
34147;DHT22;20423;49.448;9.056;2023-04-06T15:01:19;12.70;58.60
34147;DHT22;20423;49.448;9.056;2023-04-06T15:03:46;12.80;60.10
34147;DHT22;20423;49.448;9.056;2023-04-06T15:06:12;12.80;58.30
34147;DHT22;20423;49.448;9.056;2023-04-06T15:08:41;12.60;58.10
34147;DHT22;20423;49.448;9.056;2023-04-06T15:11:07;12.60;58.80
34147;DHT22;20423;49.448;9.056;2023-04-06T15:13:32;12.40;57.50
34147;DHT22;20423;49.448;9.056;2023-04-06T15:15:58;12.40;58.80
34147;DHT22;20423;49.448;9.056;2023-04-06T15:18:24;12.20;58.10
34147;DHT22;20423;49.448;9.056;2023-04-06T15:23:49;12.00;58.80
34147;DHT22;20423;49.448;9.056;2023-04-06T15:26:15;11.60;58.40
34147;DHT22;20423;49.448;9.056;2023-04-06T15:28:41;11.40;59.80
34147;DHT22;20423;49.448;9.056;2023-04-06T15:31:17;11.30;58.50
34147;DHT22;20423;49.448;9.056;2023-04-06T15:33:43;11.10;58.80
34147;DHT22;20423;49.448;9.056;2023-04-06T15:36:29;11.00;60.10
34147;DHT22;20423;49.448;9.056;2023-04-06T15:38:58;11.10;61.60
34147;DHT22;20423;49.448;9.056;2023-04-06T15:41:24;11.10;60.10
34147;DHT22;20423;49.448;9.056;2023-04-06T15:43:51;11.10;59.60
34147;DHT22;20423;49.448;9.056;2023-04-06T15:46:17;11.30;61.20
34147;DHT22;20423;49.448;9.056;2023-04-06T15:48:43;11.40;61.10
34147;DHT22;20423;49.448;9.056;2023-04-06T15:51:09;11.50;59.80
34147;DHT22;20423;49.448;9.056;2023-04-06T15:53:35;11.60;59.70
34147;DHT22;20423;49.448;9.056;2023-04-06T15:56:03;11.60;58.70
34147;DHT22;20423;49.448;9.056;2023-04-06T15:58:29;11.60;60.10
34147;DHT22;20423;49.448;9.056;2023-04-06T16:00:56;11.40;60.60
34147;DHT22;20423;49.448;9.056;2023-04-06T16:03:22;11.30;59.80
34147;DHT22;20423;49.448;9.056;2023-04-06T16:05:47;11.50;60.70
34147;DHT22;20423;49.448;9.056;2023-04-06T16:08:15;11.40;60.40
34147;DHT22;20423;49.448;9.056;2023-04-06T16:10:41;11.20;61.50
34147;DHT22;20423;49.448;9.056;2023-04-06T16:13:07;10.90;61.90